EHGG

Eelde Airport

Groningen, The Netherlands
TAF EHGG 171641Z 1718/1824 32005KT 9999 SCT030 BECMG 1720/1723 5000 MIFG BR PROB40 TEMPO 1722/1803 0800 BCFG BECMG 1802/1804 BKN012 PROB40 TEMPO 1803/1808 2500 -DZRA BKN006 BECMG 1807/1810 03011KT 9999 NSW SCT020 BECMG 1815/1818 04006KT
Issued Valid From Valid To
Oct-17 @ 16:41 UTC
(5 hours ago)
Oct-17 @ 18:00 UTC
(4 hours ago)
Oct-19 @ 00:00 UTC
(-1 days ago)
Expired Click to View Oct-17 @ 18:00 to Oct-17 @ 20:00
TAF EHGG 171641Z 1718/1824 32005KT 9999 SCT030
Wind Visibility Clouds
320° at 5 knots 10,000+ meters
  • Scattered at 3,000' AGL
Becoming Oct-17 @ 20:00 to Oct-18 @ 02:00
BECMG 1720/1723 5000 MIFG BR
Wind Visibility Clouds Conditions
320° at 5 knots 5,005 meters
  • Scattered at 3,000' AGL
  • Shallow
  • Fog
  • Mist
Temporary  (Probability 40%) Oct-17 @ 22:00 to Oct-18 @ 03:00
PROB40 TEMPO 1722/1803 0800 BCFG
Visibility Conditions
805 meters
  • Patches of
  • Fog
Becoming Oct-18 @ 02:00 to Oct-18 @ 07:00
BECMG 1802/1804 BKN012
Wind Visibility Clouds Conditions
320° at 5 knots 5,005 meters
  • Broken at 1,200' AGL
  • Shallow
  • Fog
  • Mist
Temporary  (Probability 40%) Oct-18 @ 03:00 to Oct-18 @ 08:00
PROB40 TEMPO 1803/1808 2500 -DZRA BKN006
Visibility Clouds Conditions
2,494 meters
  • Broken at 600' AGL
  • Light Drizzle
  • Light Rain
Becoming Oct-18 @ 07:00 to Oct-18 @ 15:00
BECMG 1807/1810 03011KT 9999 NSW SCT020
Wind Visibility Clouds Conditions
30° at 11 knots 10,000+ meters
  • Scattered at 2,000' AGL
Becoming Oct-18 @ 15:00 to Oct-19 @ 00:00
BECMG 1815/1818 04006KT
Wind Visibility Clouds Conditions
40° at 6 knots 10,000+ meters
  • Scattered at 2,000' AGL
TAF EHGG 171641Z 1718/1824 32005KT 9999 SCT030 BECMG 1720/1723 5000 MIFG BR PROB40 TEMPO 1722/1803 0800 BCFG BECMG 1802/1804 BKN012 PROB40 TEMPO 1803/1808 2500 -DZRA BKN006 BECMG 1807/1810 03011KT 9999 NSW SCT020 BECMG 1815/1818 04006KT
Issued Oct-17 @ 16:41 UTC
(5 hours ago)
Valid From Oct-17 @ 18:00 UTC
(4 hours ago)
Valid To Oct-19 @ 00:00 UTC
(-1 days ago)
Oct-17 @ 18:00 - Oct-17 @ 20:00
Wind Visibility
320° at 5 knots 10,000+ meters
Clouds
  • Scattered at 3,000' AGL
Becoming Oct-17 @ 20:00 - Oct-18 @ 02:00
Wind Visibility
320° at 5 knots 5,005 meters
Clouds
  • Scattered at 3,000' AGL
Conditions
  • Shallow
  • Fog
  • Mist
Probability 40% Temporary Oct-17 @ 22:00 - Oct-18 @ 03:00
Conditions
  • Patches of
  • Fog
Becoming Oct-18 @ 02:00 - Oct-18 @ 07:00
Wind Visibility
320° at 5 knots 5,005 meters
Clouds
  • Broken at 1,200' AGL
Conditions
  • Shallow
  • Fog
  • Mist
Probability 40% Temporary Oct-18 @ 03:00 - Oct-18 @ 08:00
Clouds
  • Broken at 600' AGL
Conditions
  • Light Drizzle
  • Light Rain
Becoming Oct-18 @ 07:00 - Oct-18 @ 15:00
Wind Visibility
30° at 11 knots 10,000+ meters
Clouds
  • Scattered at 2,000' AGL
Conditions
Becoming Oct-18 @ 15:00 - Oct-19 @ 00:00
Wind Visibility
40° at 6 knots 10,000+ meters
Clouds
  • Scattered at 2,000' AGL
Conditions